Time;durP1;ratioP1;P1;durP2;ratioP2;P2;SDS_P1;SDS_P2;PMS_P1;PMS_P2;Temp;Humidity;BMP_temperature;BMP_pressure;BME280_temperature;BME280_humidity;BME280_pressure;Samples;Min_cycle;Max_cycle;Signal;HPM_P1;HPM_P2
2022/03/18 00:00:20;;;;;;;11.83;6.80;;;;;;;2.11;100.00;61033.22;5095755;28;20487;-72
2022/03/18 00:02:49;;;;;;;12.97;8.07;;;;;;;1.58;100.00;60978.03;5095589;28;20466;-71
2022/03/18 00:05:17;;;;;;;14.57;8.47;;;;;;;1.92;100.00;61013.56;5095520;28;21013;-74
2022/03/18 00:07:45;;;;;;;13.43;8.27;;;;;;;1.52;100.00;60966.09;5095656;28;20886;-73
2022/03/18 00:10:15;;;;;;;12.60;7.90;;;;;;;1.97;100.00;61016.38;5095586;28;20531;-73
2022/03/18 00:12:42;;;;;;;13.07;7.63;;;;;;;1.98;100.00;61014.91;5096050;28;20497;-72
2022/03/18 00:15:11;;;;;;;14.93;9.00;;;;;;;1.92;100.00;61013.56;5097323;28;20514;-72
2022/03/18 00:17:38;;;;;;;11.30;7.70;;;;;;;1.82;100.00;61002.41;5095407;28;20493;-73
2022/03/18 00:20:09;;;;;;;12.83;7.53;;;;;;;1.97;100.00;61016.38;5095545;28;20621;-71
2022/03/18 00:22:36;;;;;;;12.40;7.80;;;;;;;1.99;100.00;61018.50;5095086;28;20881;-72
2022/03/18 00:25:04;;;;;;;12.10;8.10;;;;;;;1.91;100.00;61012.53;5095056;28;20449;-72
2022/03/18 00:27:31;;;;;;;13.60;8.00;;;;;;;2.00;100.00;61019.56;5094998;28;20503;-72
2022/03/18 00:29:58;;;;;;;14.47;8.60;;;;;;;2.01;100.00;61020.63;5095081;28;20442;-72
2022/03/18 00:32:25;;;;;;;14.27;9.20;;;;;;;1.51;100.00;60970.59;5094975;28;20438;-74
2022/03/18 00:34:52;;;;;;;14.40;8.83;;;;;;;1.06;100.00;60922.31;5094996;28;20477;-72
2022/03/18 00:37:20;;;;;;;16.30;9.57;;;;;;;1.95;100.00;61013.72;5094513;28;20526;-72
2022/03/18 00:39:47;;;;;;;17.73;9.97;;;;;;;2.00;100.00;61022.06;5094912;28;20438;-72
2022/03/18 00:42:16;;;;;;;16.33;9.83;;;;;;;1.93;100.00;61014.66;5094687;28;20441;-72
2022/03/18 00:44:45;;;;;;;15.77;9.03;;;;;;;1.85;100.00;61003.09;5094327;28;20974;-71
2022/03/18 00:52:41;;;;;;;13.87;8.20;;;;;;;1.69;100.00;60989.69;5094786;28;20984;-72
2022/03/18 00:55:09;;;;;;;12.23;8.23;;;;;;;1.77;100.00;60994.63;5095003;28;20437;-71
2022/03/18 00:57:36;;;;;;;12.73;8.23;;;;;;;1.75;100.00;60993.03;5094609;28;20562;-71
2022/03/18 01:00:07;;;;;;;11.67;7.67;;;;;;;1.55;100.00;60974.81;5094543;28;20444;-72
2022/03/18 01:02:33;;;;;;;15.97;8.00;;;;;;;1.77;100.00;60992.63;5094339;28;20522;-72
2022/03/18 01:05:00;;;;;;;11.70;7.73;;;;;;;1.64;100.00;60984.38;5094384;28;20459;-71
2022/03/18 01:07:28;;;;;;;12.77;8.03;;;;;;;1.65;100.00;60982.94;5093901;28;20467;-72
2022/03/18 01:09:59;;;;;;;11.70;8.37;;;;;;;1.53;100.00;60970.19;5094178;28;20448;-72
2022/03/18 01:12:26;;;;;;;12.00;7.97;;;;;;;1.87;100.00;61008.28;5094174;28;21076;-72
2022/03/18 01:14:55;;;;;;;10.80;7.47;;;;;;;1.96;100.00;61015.31;5094455;28;20826;-73
2022/03/18 01:17:21;;;;;;;12.30;7.37;;;;;;;1.82;100.00;60999.91;5093842;28;20526;-72
2022/03/18 01:19:48;;;;;;;10.27;7.57;;;;;;;1.90;100.00;61011.44;5093921;28;20471;-72
2022/03/18 01:22:15;;;;;;;10.97;7.63;;;;;;;1.92;100.00;61013.56;5094392;28;20499;-71
2022/03/18 01:24:42;;;;;;;12.30;7.67;;;;;;;2.08;100.00;61028.06;5076058;28;20475;-73
2022/03/18 01:27:11;;;;;;;11.33;7.43;;;;;;;1.95;100.00;61011.75;5075955;28;20442;-71
2022/03/18 01:29:38;;;;;;;13.57;9.20;;;;;;;1.62;100.00;60981.72;5093941;28;20511;-71
2022/03/18 01:32:05;;;;;;;12.47;8.27;;;;;;;1.85;100.00;61001.13;5093400;28;20445;-70
2022/03/18 01:34:33;;;;;;;13.50;9.00;;;;;;;1.94;100.00;61015.16;5093776;28;20998;-72
2022/03/18 01:37:00;;;;;;;11.70;8.17;;;;;;;2.11;100.00;61030.72;5093915;28;20481;-72
2022/03/18 01:39:27;;;;;;;14.20;9.13;;;;;;;1.81;100.00;61001.91;5093720;28;20446;-73
2022/03/18 01:41:54;;;;;;;15.23;9.73;;;;;;;1.71;100.00;60986.28;5093814;28;20438;-72
2022/03/18 01:44:22;;;;;;;17.37;9.80;;;;;;;1.80;100.00;60993.31;5093624;28;20442;-72
2022/03/18 01:46:49;;;;;;;14.73;8.67;;;;;;;1.89;100.00;61010.41;5093584;28;20499;-72
2022/03/18 01:49:16;;;;;;;14.30;9.43;;;;;;;1.90;100.00;61008.94;5093708;28;20437;-72
2022/03/18 01:51:43;;;;;;;18.03;10.27;;;;;;;1.78;100.00;60998.72;5093747;28;20514;-72
2022/03/18 01:56:55;;;;;;;15.10;9.53;;;;;;;1.71;100.00;60988.78;5085309;28;20480;-71
2022/03/18 01:59:26;;;;;;;17.23;10.03;;;;;;;1.64;100.00;60983.84;5088919;28;20533;-73
2022/03/18 02:01:53;;;;;;;13.53;9.23;;;;;;;1.46;100.00;60964.75;5092467;28;20519;-72
2022/03/18 02:04:20;;;;;;;16.03;10.07;;;;;;;1.50;100.00;60967.03;5093175;28;20959;-73
2022/03/18 02:06:47;;;;;;;15.90;9.50;;;;;;;0.98;100.00;60908.81;5092966;28;20992;-71
2022/03/18 02:09:19;;;;;;;17.10;9.40;;;;;;;1.43;100.00;60956.56;5093134;28;20461;-72
2022/03/18 02:11:47;;;;;;;14.03;9.63;;;;;;;1.38;100.00;60956.25;5074704;28;20502;-71
2022/03/18 02:14:29;;;;;;;16.40;10.27;;;;;;;1.30;100.00;60947.78;5092933;28;20873;-71
2022/03/18 02:16:59;;;;;;;14.70;10.43;;;;;;;0.92;100.00;60902.44;5092896;28;20530;-71
2022/03/18 02:19:26;;;;;;;17.27;11.30;;;;;;;1.28;100.00;60946.19;5092227;28;20448;-72
2022/03/18 02:21:56;;;;;;;18.70;12.10;;;;;;;1.30;100.00;60943.28;5076852;28;20499;-71
2022/03/18 02:24:25;;;;;;;18.03;11.40;;;;;;;1.53;100.00;60967.16;5092942;28;21036;-71
2022/03/18 02:26:55;;;;;;;19.47;12.77;;;;;;;1.34;100.00;60952.03;5092884;28;20446;-74
2022/03/18 02:29:24;;;;;;;17.47;11.93;;;;;;;1.52;100.00;60966.09;5092887;28;20506;-71
2022/03/18 02:31:51;;;;;;;22.70;13.40;;;;;;;1.35;100.00;60951.09;5092609;28;20533;-70
2022/03/18 02:34:19;;;;;;;23.30;14.33;;;;;;;1.22;100.00;60937.31;5092794;28;20469;-72
2022/03/18 02:36:46;;;;;;;21.03;13.90;;;;;;;0.51;100.00;60865.06;5092396;28;21007;-73
2022/03/18 02:39:13;;;;;;;21.40;14.37;;;;;;;1.09;100.00;60925.50;5092647;28;20438;-72
2022/03/18 02:41:42;;;;;;;22.83;14.77;;;;;;;1.25;100.00;60937.47;5092676;28;20860;-72
2022/03/18 02:44:08;;;;;;;25.33;14.67;;;;;;;1.18;100.00;60930.03;5092429;28;20506;-72
2022/03/18 02:46:35;;;;;;;21.77;14.63;;;;;;;1.16;100.00;60932.91;5092299;28;20959;-72
2022/03/18 02:49:03;;;;;;;23.70;14.30;;;;;;;1.13;100.00;60925.25;5092234;28;20441;-73
2022/03/18 02:51:32;;;;;;;22.97;14.67;;;;;;;1.09;100.00;60923.00;5092552;28;20449;-72
2022/03/18 02:53:59;;;;;;;21.43;14.30;;;;;;;1.06;100.00;60919.81;5092166;28;21021;-72
2022/03/18 02:56:26;;;;;;;25.10;13.73;;;;;;;0.96;100.00;60907.22;5092258;28;20442;-72
2022/03/18 02:58:55;;;;;;;22.07;14.37;;;;;;;0.95;100.00;60910.66;5091907;28;20550;-72
2022/03/18 03:01:22;;;;;;;22.97;13.90;;;;;;;0.88;100.00;60898.75;5092050;28;21022;-73
2022/03/18 03:03:49;;;;;;;25.17;15.10;;;;;;;0.82;100.00;60897.94;5091781;28;20450;-74
2022/03/18 03:09:02;;;;;;;21.83;13.33;;;;;;;1.02;100.00;60918.59;5092332;28;20433;-72
2022/03/18 03:11:29;;;;;;;23.00;14.07;;;;;;;0.90;100.00;60898.34;5092134;28;20445;-73
2022/03/18 03:13:59;;;;;;;22.27;13.43;;;;;;;1.06;100.00;60917.31;5091913;28;20498;-73
2022/03/18 03:16:26;;;;;;;21.47;13.50;;;;;;;0.92;100.00;60905.50;5091943;28;20499;-73
2022/03/18 03:18:53;;;;;;;21.30;13.63;;;;;;;0.82;100.00;60897.94;5091768;28;20538;-71
2022/03/18 03:21:20;;;;;;;24.90;12.97;;;;;;;0.11;100.00;60817.66;5092158;28;20441;-74
2022/03/18 03:23:48;;;;;;;18.03;11.90;;;;;;;0.83;100.00;60898.97;5091826;28;20446;-71
2022/03/18 03:26:15;;;;;;;19.13;12.37;;;;;;;0.75;100.00;60889.97;5091863;28;20858;-71
2022/03/18 03:28:42;;;;;;;23.87;13.97;;;;;;;0.79;100.00;60894.75;5091573;28;20943;-73
2022/03/18 03:31:11;;;;;;;19.10;11.90;;;;;;;0.87;100.00;60902.19;5091633;28;20520;-71
2022/03/18 03:33:39;;;;;;;20.23;13.40;;;;;;;0.81;100.00;60891.84;5091645;28;20882;-71
2022/03/18 03:36:06;;;;;;;21.27;12.43;;;;;;;0.81;100.00;60896.84;5091801;28;20442;-71
2022/03/18 03:38:34;;;;;;;22.83;12.57;;;;;;;0.89;100.00;60904.28;5091863;28;20572;-72
2022/03/18 03:41:02;;;;;;;17.47;9.73;;;;;;;0.78;100.00;60888.13;5091851;28;20445;-72
2022/03/18 03:43:29;;;;;;;17.00;11.43;;;;;;;0.65;100.00;60874.34;5091637;28;20448;-72
2022/03/18 03:45:55;;;;;;;22.87;13.20;;;;;;;0.67;100.00;60881.47;5090970;28;20516;-72
2022/03/18 03:48:24;;;;;;;19.63;12.80;;;;;;;0.72;100.00;60884.81;5091467;28;20951;-71
2022/03/18 03:50:51;;;;;;;21.57;12.10;;;;;;;0.74;100.00;60894.47;5091578;28;20445;-73
2022/03/18 03:53:18;;;;;;;19.67;12.53;;;;;;;0.65;100.00;60879.91;5091531;28;20507;-72
2022/03/18 03:55:45;;;;;;;22.10;10.93;;;;;;;0.64;100.00;60868.81;5091516;28;20450;-71
2022/03/18 03:58:12;;;;;;;18.00;10.97;;;;;;;0.55;100.00;60869.28;5091094;28;20492;-71
2022/03/18 04:00:40;;;;;;;15.87;10.37;;;;;;;-0.10;100.00;60795.41;5091282;28;20445;-71
2022/03/18 04:03:07;;;;;;;16.53;11.23;;;;;;;0.47;100.00;60860.81;5091578;28;20449;-72
2022/03/18 04:05:38;;;;;;;16.60;11.00;;;;;;;0.52;100.00;60863.63;5091476;28;20491;-72
2022/03/18 04:08:05;;;;;;;16.80;11.37;;;;;;;0.60;100.00;60869.06;5091091;28;20454;-74
2022/03/18 04:10:32;;;;;;;27.57;16.17;;;;;;;0.53;100.00;60867.19;5091287;28;20445;-71
2022/03/18 04:12:59;;;;;;;36.87;18.17;;;;;;;0.73;100.00;60887.84;5091135;28;20446;-72
2022/03/18 04:15:27;;;;;;;30.83;14.67;;;;;;;0.92;100.00;60902.44;5091218;28;20947;-72
2022/03/18 04:17:54;;;;;;;17.57;11.17;;;;;;;0.78;100.00;60893.69;5091135;28;20959;-72
2022/03/18 04:20:25;;;;;;;22.17;12.40;;;;;;;0.70;100.00;60885.22;5091324;28;20537;-71
2022/03/18 04:22:53;;;;;;;18.43;11.17;;;;;;;0.76;100.00;60889.06;5091265;28;20446;-74
2022/03/18 04:25:21;;;;;;;53.87;26.23;;;;;;;0.91;100.00;60896.38;5091439;28;20445;-74
2022/03/18 04:27:50;;;;;;;23.57;12.67;;;;;;;0.99;100.00;60914.91;5091114;28;20485;-70
2022/03/18 04:30:17;;;;;;;22.13;11.70;;;;;;;0.97;100.00;60907.75;5091536;28;20445;-72
2022/03/18 04:32:44;;;;;;;16.53;10.17;;;;;;;0.87;100.00;60902.19;5090438;28;20453;-72
2022/03/18 04:35:12;;;;;;;17.13;10.33;;;;;;;0.90;100.00;60900.34;5090777;28;20496;-72
2022/03/18 04:37:41;;;;;;;16.33;9.40;;;;;;;0.86;100.00;60901.63;5090531;28;20486;-72
2022/03/18 04:40:12;;;;;;;21.53;12.10;;;;;;;0.68;100.00;60875.03;5091040;28;21031;-72
2022/03/18 04:42:38;;;;;;;21.87;11.13;;;;;;;0.96;100.00;60911.72;5093861;28;20845;-72
2022/03/18 04:45:06;;;;;;;18.17;10.30;;;;;;;1.06;100.00;60919.81;5094742;28;20528;-72
2022/03/18 04:47:35;;;;;;;15.57;10.20;;;;;;;0.91;100.00;60906.41;5094746;28;20503;-72
2022/03/18 04:50:03;;;;;;;19.43;9.67;;;;;;;0.94;100.00;60909.59;5094570;28;20491;-71
2022/03/18 04:52:32;;;;;;;18.23;9.80;;;;;;;0.84;100.00;60900.06;5094747;28;20499;-73
2022/03/18 04:54:58;;;;;;;17.43;10.43;;;;;;;0.69;100.00;60881.63;5094702;28;20470;-73
2022/03/18 04:57:27;;;;;;;17.93;9.70;;;;;;;0.77;100.00;60887.59;5093922;28;20884;-72
2022/03/18 04:59:54;;;;;;;21.97;10.20;;;;;;;0.88;100.00;60903.22;5094435;28;20438;-72
2022/03/18 05:02:21;;;;;;;14.43;8.47;;;;;;;0.77;100.00;60890.13;5076505;28;20473;-73
2022/03/18 05:04:49;;;;;;;15.67;8.70;;;;;;;0.68;100.00;60882.56;5094191;28;20493;-71
2022/03/18 05:07:17;;;;;;;20.63;14.47;;;;;;;0.90;100.00;60902.84;5094509;28;20503;-72
2022/03/18 05:09:46;;;;;;;17.57;10.60;;;;;;;0.97;100.00;60910.28;5094302;28;20449;-72
2022/03/18 05:12:15;;;;;;;17.90;11.93;;;;;;;0.89;100.00;60904.28;5094436;28;20442;-72
2022/03/18 05:14:43;;;;;;;23.27;12.30;;;;;;;0.92;100.00;60904.97;5094216;28;20446;-72
2022/03/18 05:17:15;;;;;;;18.13;10.00;;;;;;;0.99;100.00;60912.38;5094137;28;20430;-72
2022/03/18 05:19:42;;;;;;;12.87;7.23;;;;;;;0.50;100.00;60863.47;5094121;28;20445;-73
2022/03/18 05:22:09;;;;;;;35.60;15.47;;;;;;;0.69;100.00;60884.13;5094138;28;20486;-72
2022/03/18 05:24:36;;;;;;;29.33;16.80;;;;;;;0.86;100.00;60901.63;5094045;28;20499;-72
2022/03/18 05:27:04;;;;;;;39.27;18.77;;;;;;;0.85;100.00;60898.59;5094060;28;20437;-72
2022/03/18 05:29:32;;;;;;;23.17;13.10;;;;;;;0.44;100.00;60857.13;5093860;28;20532;-74
2022/03/18 05:32:01;;;;;;;22.77;13.20;;;;;;;1.19;100.00;60936.13;5093947;28;20454;-72
2022/03/18 05:34:28;;;;;;;20.50;10.80;;;;;;;1.32;100.00;60949.91;5093800;28;21050;-71
2022/03/18 05:36:56;;;;;;;21.80;11.43;;;;;;;1.45;100.00;60964.22;5093779;28;20441;-71
2022/03/18 05:39:24;;;;;;;19.37;9.80;;;;;;;1.53;100.00;60967.16;5093710;28;20577;-72
2022/03/18 05:41:51;;;;;;;17.03;9.90;;;;;;;1.56;100.00;60970.34;5093562;28;20507;-73
2022/03/18 05:44:18;;;;;;;13.60;7.40;;;;;;;1.67;100.00;60987.03;5093490;28;20454;-72
2022/03/18 05:46:45;;;;;;;14.90;7.93;;;;;;;1.75;100.00;60990.53;5093698;28;20529;-72
2022/03/18 05:49:14;;;;;;;13.77;7.90;;;;;;;1.90;100.00;61011.44;5093811;28;20506;-73
2022/03/18 05:51:41;;;;;;;12.27;8.17;;;;;;;1.95;100.00;61014.25;5093259;28;20959;-71
2022/03/18 05:54:08;;;;;;;18.80;8.40;;;;;;;0.76;100.00;60891.56;5093488;28;20437;-72
2022/03/18 05:56:55;;;;;;;26.00;9.77;;;;;;;1.76;100.00;60996.59;5093291;28;20441;-71
2022/03/18 05:59:23;;;;;;;24.60;11.90;;;;;;;1.82;100.00;61000.44;5092978;28;20485;-72
2022/03/18 06:01:50;;;;;;;15.67;9.07;;;;;;;1.63;100.00;60977.78;5093044;28;20457;-72
2022/03/18 06:04:19;;;;;;;63.43;24.77;;;;;;;0.43;100.00;60851.56;5093152;28;20441;-71
2022/03/18 06:06:47;;;;;;;21.63;11.97;;;;;;;1.45;100.00;60963.69;5093011;28;20438;-71
2022/03/18 06:11:59;;;;;;;20.57;11.37;;;;;;;1.37;100.00;60955.22;5093093;28;20436;-74
2022/03/18 06:14:28;;;;;;;16.50;9.90;;;;;;;1.38;100.00;60953.75;5092999;28;20450;-73
2022/03/18 06:16:56;;;;;;;19.23;10.40;;;;;;;1.14;100.00;60931.34;5091859;28;20578;-73
2022/03/18 06:19:26;;;;;;;14.67;9.07;;;;;;;1.29;100.00;60944.72;5092875;28;20530;-72
2022/03/18 06:21:53;;;;;;;24.00;13.07;;;;;;;1.51;100.00;60970.06;5092743;28;20437;-71
2022/03/18 06:24:22;;;;;;;26.20;11.37;;;;;;;1.66;100.00;60983.47;5092527;28;20454;-73
2022/03/18 06:26:50;;;;;;;47.53;19.60;;;;;;;1.70;100.00;60990.22;5092696;28;20465;-71
2022/03/18 06:29:17;;;;;;;44.13;15.87;;;;;;;1.66;100.00;60986.50;5092775;28;20510;-71
2022/03/18 06:31:44;;;;;;;38.37;17.63;;;;;;;1.53;100.00;60972.19;5092479;28;20849;-72
2022/03/18 06:34:12;;;;;;;30.67;14.50;;;;;;;1.73;100.00;60993.94;5092549;28;20558;-72
2022/03/18 06:36:44;;;;;;;25.27;12.13;;;;;;;1.91;100.00;61007.50;5095546;28;20831;-72
2022/03/18 06:39:12;;;;;;;14.30;7.43;;;;;;;1.89;100.00;61007.88;5092546;28;20485;-72
2022/03/18 06:41:39;;;;;;;13.23;6.30;;;;;;;1.73;100.00;60991.41;5092214;28;20506;-73
2022/03/18 06:44:08;;;;;;;12.33;4.83;;;;;;;1.66;100.00;60983.47;5092368;28;20480;-72
2022/03/18 06:46:35;;;;;;;17.00;8.70;;;;;;;1.39;100.00;60954.81;5092245;28;20449;-72
2022/03/18 06:49:03;;;;;;;25.97;11.53;;;;;;;1.77;100.00;60997.13;5092211;28;20436;-74
2022/03/18 06:51:30;;;;;;;12.90;7.00;;;;;;;2.08;100.00;61025.53;5092051;28;20510;-72
2022/03/18 06:53:59;;;;;;;11.37;6.07;;;;;;;1.90;100.00;61011.44;5092174;28;20476;-71
2022/03/18 06:56:27;;;;;;;9.20;4.00;;;;;;;2.06;100.00;61023.41;5092242;28;20437;-72
2022/03/18 06:58:54;;;;;;;8.57;4.17;;;;;;;2.12;100.00;61032.28;5091855;28;20481;-72
2022/03/18 07:01:21;;;;;;;13.33;6.10;;;;;;;2.18;100.00;61041.19;5091620;28;20519;-72
2022/03/18 07:03:48;;;;;;;10.40;6.27;;;;;;;2.43;100.00;61072.78;5088235;28;20442;-72
2022/03/18 07:06:15;;;;;;;11.83;7.23;;;;;;;2.48;100.00;61073.03;5091590;28;20456;-73
2022/03/18 07:08:42;;;;;;;12.47;7.33;;;;;;;2.06;100.00;61028.44;5092022;28;20445;-74
2022/03/18 07:11:13;;;;;;;12.83;5.90;;;;;;;2.40;100.00;61062.03;5091124;28;20529;-72
2022/03/18 07:13:41;;;;;;;15.87;6.33;;;;;;;2.41;100.00;61062.56;5072930;28;20536;-73
2022/03/18 07:18:53;;;;;;;15.00;5.50;;;;;;;2.64;100.00;61083.97;5091033;28;20499;-71
2022/03/18 07:21:21;;;;;;;9.73;4.87;;;;;;;2.75;100.00;61100.66;5091227;28;20450;-73
2022/03/18 07:23:50;;;;;;;10.33;5.50;;;;;;;2.44;100.00;61073.81;5091393;28;20498;-72
2022/03/18 07:26:18;;;;;;;14.93;7.40;;;;;;;2.28;100.00;61051.81;5091062;28;20480;-71
2022/03/18 07:28:46;;;;;;;20.40;10.17;;;;;;;2.45;100.00;61069.34;5071556;28;20438;-72
2022/03/18 07:31:12;;;;;;;11.00;7.13;;;;;;;1.91;100.00;61012.00;5090897;28;20610;-73
2022/03/18 07:33:39;;;;;;;9.47;6.17;;;;;;;2.76;100.00;61101.75;5069847;28;20856;-71
2022/03/18 07:36:08;;;;;;;12.97;7.37;;;;;;;3.07;100.00;61132.16;5091851;28;20441;-72
2022/03/18 07:38:35;;;;;;;13.73;5.47;;;;;;;2.75;100.00;61095.63;5091660;28;20557;-72
2022/03/18 07:41:02;;;;;;;9.47;5.17;;;;;;;2.40;100.00;61064.53;5091481;28;20448;-72
2022/03/18 07:43:31;;;;;;;7.40;4.00;;;;;;;1.97;100.00;61023.91;5092166;28;20461;-72
2022/03/18 07:45:58;;;;;;;8.10;4.67;;;;;;;2.18;100.00;61041.19;5073267;28;20549;-71
2022/03/18 07:48:26;;;;;;;6.43;4.47;;;;;;;2.48;100.00;61077.53;5091469;28;20442;-74
2022/03/18 07:50:54;;;;;;;8.37;4.43;;;;;;;2.32;100.00;61053.53;5091504;28;20520;-72
2022/03/18 07:53:21;;;;;;;12.33;6.40;;;;;;;2.74;100.00;61099.63;5091066;28;20477;-73
2022/03/18 07:55:48;;;;;;;12.70;5.90;;;;;;;2.58;100.00;61082.63;5089025;28;20466;-72
2022/03/18 07:58:16;;;;;;;21.07;9.17;;;;;;;2.02;100.00;61026.69;5077882;28;20468;-72
2022/03/18 08:00:45;;;;;;;17.60;8.00;;;;;;;3.11;100.00;61138.94;5076736;28;20444;-73
2022/03/18 08:03:12;;;;;;;10.17;4.93;;;;;;;3.33;100.00;61157.28;5088005;28;20438;-73
2022/03/18 08:05:40;;;;;;;11.33;6.07;;;;;;;3.85;100.00;61217.63;5083647;28;20446;-72
2022/03/18 08:08:07;;;;;;;9.10;6.30;;;;;;;3.53;100.00;61186.09;5070092;28;20451;-73
2022/03/18 08:10:34;;;;;;;9.97;4.03;;;;;;;4.02;100.00;61235.19;5071047;28;20438;-71
2022/03/18 08:13:02;;;;;;;19.50;6.13;;;;;;;4.50;100.00;61285.72;5070408;28;20459;-70
2022/03/18 08:15:29;;;;;;;37.07;15.60;;;;;;;4.99;100.00;61337.91;5071157;28;20565;-71
2022/03/18 08:17:57;;;;;;;13.67;8.93;;;;;;;5.32;100.00;61375.59;5074061;28;20529;-71
2022/03/18 08:20:25;;;;;;;14.77;7.30;;;;;;;5.65;100.00;61405.19;5074418;28;20583;-71
2022/03/18 08:22:52;;;;;;;10.33;6.77;;;;;;;5.66;100.00;61406.78;5074700;28;20446;-72
2022/03/18 08:25:20;;;;;;;13.53;5.70;;;;;;;5.40;100.00;61376.53;5074769;28;20739;-79
2022/03/18 08:27:50;;;;;;;13.87;5.30;;;;;;;5.82;100.00;61426.34;5074759;28;20451;-77
2022/03/18 08:30:17;;;;;;;8.90;4.70;;;;;;;5.64;100.00;61407.16;5074641;28;20508;-77
2022/03/18 08:32:47;;;;;;;5.60;3.47;;;;;;;4.75;100.00;61307.31;5074832;28;20456;-76
2022/03/18 08:35:15;;;;;;;10.60;4.70;;;;;;;5.69;100.00;61409.97;5074322;28;20488;-72
2022/03/18 08:37:57;;;;;;;14.43;5.83;;;;;;;5.97;100.00;61439.31;5083711;28;20500;-72
2022/03/18 08:40:25;;;;;;;16.57;6.07;;;;;;;5.43;100.00;61384.81;5075473;28;21012;-72
2022/03/18 08:42:52;;;;;;;11.87;5.73;;;;;;;5.37;100.00;61375.88;5077668;28;20503;-73
2022/03/18 08:45:20;;;;;;;6.67;4.80;;;;;;;4.40;100.00;61265.00;5094764;28;20437;-72
2022/03/18 08:47:47;;;;;;;13.03;6.20;;;;;;;4.59;100.00;61292.81;5075107;28;20945;-71
2022/03/18 08:50:17;;;;;;;9.27;6.73;;;;;;;5.17;100.00;61349.53;5091837;28;20441;-72
2022/03/18 08:52:46;;;;;;;12.77;6.80;;;;;;;5.39;100.00;61374.94;5094291;28;20586;-74
2022/03/18 08:55:13;;;;;;;8.77;4.53;;;;;;;5.87;100.00;61426.66;5093682;28;20473;-72
2022/03/18 08:57:41;;;;;;;7.97;4.80;;;;;;;6.48;100.00;61493.69;5095367;28;20491;-72
2022/03/18 09:00:11;;;;;;;5.90;3.47;;;;;;;5.28;100.00;61368.81;5094404;28;20484;-72
2022/03/18 09:02:40;;;;;;;10.83;5.13;;;;;;;5.42;100.00;61378.66;5094359;28;20560;-73
2022/03/18 09:05:09;;;;;;;8.23;4.90;;;;;;;5.76;100.00;61416.91;5094221;28;20884;-74
2022/03/18 09:07:39;;;;;;;10.43;5.23;;;;;;;6.12;100.00;61454.78;5094537;28;20940;-72
2022/03/18 09:10:08;;;;;;;19.83;7.73;;;;;;;5.97;100.00;61442.38;5094283;28;20450;-73
2022/03/18 09:12:35;;;;;;;12.10;7.37;;;;;;;6.27;100.00;61473.28;5090757;28;20450;-73
2022/03/18 09:15:03;;;;;;;16.37;7.50;;;;;;;6.83;100.00;61533.03;5073614;28;20450;-73
2022/03/18 09:17:30;;;;;;;13.67;5.27;;;;;;;6.15;100.00;61460.50;5073873;28;20447;-76
2022/03/18 09:19:57;;;;;;;8.27;5.13;;;;;;;5.83;100.00;61417.34;5073762;28;20567;-73
2022/03/18 09:22:25;;;;;;;10.60;5.03;;;;;;;5.75;100.00;61413.84;5073755;28;20446;-73
2022/03/18 09:24:53;;;;;;;8.00;5.47;;;;;;;5.82;100.00;61421.31;5072924;28;20446;-74
2022/03/18 09:27:21;;;;;;;7.83;5.20;;;;;;;6.16;100.00;61457.03;5078352;28;20508;-75
2022/03/18 09:29:49;;;;;;;6.83;4.57;;;;;;;5.13;100.00;61347.78;5063598;28;20449;-72
2022/03/18 09:32:16;;;;;;;9.27;4.30;;;;;;;5.99;100.00;61441.44;5092918;28;20438;-76
2022/03/18 09:34:44;;;;;;;8.87;5.20;;;;;;;5.36;100.00;61374.81;5092540;28;20921;-76
2022/03/18 09:37:11;;;;;;;11.57;5.53;;;;;;;5.51;100.00;61387.72;5086061;28;20602;-75
2022/03/18 09:39:38;;;;;;;11.30;5.40;;;;;;;5.90;100.00;61429.84;5054482;28;20958;-76
2022/03/18 09:42:11;;;;;;;5.67;3.33;;;;;;;5.32;100.00;61370.53;5085356;28;20512;-75
2022/03/18 09:44:40;;;;;;;6.40;4.67;;;;;;;5.33;100.00;61371.09;5073366;28;20447;-76
2022/03/18 09:47:10;;;;;;;12.53;5.80;;;;;;;6.20;100.00;61460.78;5072772;28;20526;-71
2022/03/18 09:49:38;;;;;;;8.57;5.47;;;;;;;6.43;100.00;61485.84;5072410;28;20451;-75
2022/03/18 09:52:06;;;;;;;14.30;7.30;;;;;;;7.29;100.00;61577.06;5071884;28;20442;-73
2022/03/18 09:54:34;;;;;;;7.07;4.90;;;;;;;7.32;100.00;61582.28;5073158;28;20881;-79
2022/03/18 09:57:03;;;;;;;8.80;5.30;;;;;;;8.73;100.00;61734.97;5073900;28;20541;-83
2022/03/18 09:59:32;;;;;;;7.20;4.93;;;;;;;8.56;100.00;61711.69;5073835;28;20478;-73
2022/03/18 10:02:25;;;;;;;9.87;6.20;;;;;;;8.00;100.00;61654.38;5072702;28;20890;-73
2022/03/18 10:04:53;;;;;;;7.50;5.47;;;;;;;7.45;100.00;61593.63;5074364;28;20500;-73
2022/03/18 10:07:21;;;;;;;6.30;4.43;;;;;;;6.37;100.00;61483.97;5072714;28;20457;-73
2022/03/18 10:09:48;;;;;;;9.00;4.47;;;;;;;5.65;100.00;61405.19;5072733;28;20446;-73
2022/03/18 10:12:31;;;;;;;7.70;5.40;;;;;;;5.40;100.00;61381.59;5072144;28;20462;-73
2022/03/18 10:15:11;;;;;;;10.90;5.43;;;;;;;5.10;100.00;61349.63;5071635;28;20435;-74
2022/03/18 10:17:42;;;;;;;8.03;5.40;;;;;;;5.30;100.00;61368.41;5072448;28;20437;-73
2022/03/18 10:20:24;;;;;;;14.13;7.07;;;;;;;5.35;100.00;61371.22;5072401;28;20551;-73
2022/03/18 10:22:52;;;;;;;10.73;5.90;;;;;;;5.19;100.00;61361.75;5085093;28;20899;-74
2022/03/18 10:25:42;;;;;;;11.70;6.27;;;;;;;5.16;100.00;61353.50;5092522;28;20469;-73
2022/03/18 10:28:11;;;;;;;11.50;6.53;;;;;;;5.26;100.00;61364.16;5092679;28;20520;-72
2022/03/18 10:30:39;;;;;;;12.83;6.27;;;;;;;5.31;100.00;61369.50;5092327;28;20471;-72
2022/03/18 10:33:06;;;;;;;9.03;5.73;;;;;;;5.36;100.00;61377.34;5092414;28;20490;-73
2022/03/18 10:38:38;;;;;;;14.83;7.37;;;;;;;5.22;100.00;61359.88;5092746;28;20440;-72
2022/03/18 10:41:09;;;;;;;11.50;6.30;;;;;;;5.11;100.00;61350.72;5092002;28;20912;-73
2022/03/18 10:43:54;;;;;;;14.97;5.70;;;;;;;5.14;100.00;61348.84;5092859;28;20519;-73
2022/03/18 10:46:23;;;;;;;16.20;5.97;;;;;;;5.23;100.00;61358.44;5091279;28;20528;-73
2022/03/18 10:49:03;;;;;;;23.60;8.90;;;;;;;5.21;100.00;61358.84;5091900;28;20434;-75
2022/03/18 10:51:31;;;;;;;10.57;6.00;;;;;;;5.23;100.00;61358.44;5072025;28;20434;-74
2022/03/18 10:53:59;;;;;;;11.10;5.80;;;;;;;5.33;100.00;61369.09;5071784;28;20446;-74
2022/03/18 10:56:27;;;;;;;9.57;5.20;;;;;;;4.84;100.00;61319.41;5072013;28;20500;-77
2022/03/18 10:58:54;;;;;;;10.53;5.90;;;;;;;6.08;100.00;61450.50;5071360;28;20457;-74
2022/03/18 11:01:24;;;;;;;8.50;5.30;;;;;;;6.58;100.00;61504.38;5071974;28;20490;-76
2022/03/18 11:03:52;;;;;;;12.53;5.30;;;;;;;6.78;100.00;61525.19;5071601;28;20447;-76
2022/03/18 11:06:19;;;;;;;12.30;4.97;;;;;;;6.90;99.54;61535.47;5085579;28;20438;-75
2022/03/18 11:08:48;;;;;;;9.50;5.43;;;;;;;7.39;94.60;61587.75;5092155;28;20897;-75
2022/03/18 11:11:18;;;;;;;10.87;5.40;;;;;;;7.61;89.82;61613.78;5084159;28;20451;-74
2022/03/18 11:13:50;;;;;;;9.00;4.87;;;;;;;8.06;82.56;61658.25;5071184;28;20524;-73
2022/03/18 11:16:25;;;;;;;9.83;5.17;;;;;;;7.31;76.25;61584.28;5071358;28;20446;-75
2022/03/18 11:18:53;;;;;;;7.33;4.83;;;;;;;8.19;75.29;61672.16;5071733;28;20877;-75
2022/03/18 11:21:21;;;;;;;9.47;4.50;;;;;;;7.61;71.60;61618.31;5071535;28;20494;-75
2022/03/18 11:23:49;;;;;;;7.10;4.70;;;;;;;7.93;74.97;61644.38;5071414;28;20453;-75
2022/03/18 11:26:18;;;;;;;10.30;5.37;;;;;;;7.55;72.58;61599.22;5053868;28;20438;-76
2022/03/18 11:28:46;;;;;;;8.13;4.77;;;;;;;8.72;68.38;61728.81;5070971;28;20450;-73
2022/03/18 11:31:17;;;;;;;11.33;4.43;;;;;;;8.81;64.67;61738.44;5071238;28;20454;-73
2022/03/18 11:34:10;;;;;;;23.90;5.70;;;;;;;8.85;60.15;61745.25;5071349;28;20561;-75
2022/03/18 11:36:39;;;;;;;9.87;6.40;;;;;;;8.47;59.20;61705.16;5071571;28;20454;-76
2022/03/18 11:39:08;;;;;;;9.37;5.40;;;;;;;8.73;60.70;61734.97;5071496;28;21376;-74
2022/03/18 11:41:51;;;;;;;8.03;5.10;;;;;;;9.38;61.84;61798.34;5071529;28;20547;-75
2022/03/18 11:44:41;;;;;;;10.50;4.93;;;;;;;9.08;57.86;61769.84;5071404;28;20446;-75
2022/03/18 11:47:36;;;;;;;7.07;4.63;;;;;;;9.12;59.67;61774.13;5021482;28;20526;-75
2022/03/18 11:50:48;;;;;;;6.83;4.37;;;;;;;9.46;60.46;61809.44;5072533;28;20722;-76